North Perry, FL

9:49 PM EDT on October 20, 2014 (GMT -0400)
Fort Lauderdale-Hollywood International | Change Station
CLOSE
Current Station
Airport
Location: Ft Lauderdale,
Elevation: 10 ft
Nearby Weather Stations

Elev 10 ft 26.07 °N, 80.15 °W | Updated 56 minutes ago

Mostly Cloudy
Mostly Cloudy
78 °F
Feels Like 78 °F
N
0
Wind Variable Wind from North

Today
High -- | Low -- °F
--% Chance of Precip.
Yesterday
High -- | Low -- °F
Precip. -- in
7:22 AM 6:48 PM
Waning Crescent, 8% visible
Pressure 29.96 in
Visibility 10.0 miles
Clouds Few 3600 ft
Few 5500 ft
Mostly Cloudy 6500 ft
Mostly Cloudy 25000 ft
Dew Point 73 °F
Humidity 84%
Rainfall 0.00 in
Snow Depth Not available.
UV 0 out of 12
Pollen 3.60 out of 12
Air Quality Not available.
Flu Activity Local Activity
METAR KFLL 210053Z 00000KT 10SM FEW036 FEW055 BKN065 BKN250 26/23 A2996 RMK AO2 RAB2354E04 SLP145 P0000 T02560228

More Conditions Fewer Conditions

Pressure 29.96 in
Visibility 10.0 miles
Clouds Few 3600 ft
Few 5500 ft
Mostly Cloudy 6500 ft
Mostly Cloudy 25000 ft
Dew Point 73 °F
Humidity 84%
Rainfall 0.00 in
Snow Depth Not available.
UV 0 out of 12
Pollen 3.60 out of 12
Air Quality Not available.
Flu Activity Local Activity
METAR KFLL 210053Z 00000KT 10SM FEW036 FEW055 BKN065 BKN250 26/23 A2996 RMK AO2 RAB2354E04 SLP145 P0000 T02560228

More Conditions Fewer Conditions

10-Day Weather Forecast

Almanac

Astronomy

Oct. 20, 2014 Rise Set
Actual Time 7:22 AM EDT 6:48 PM EDT
Civil Twilight 6:59 AM EDT 7:11 PM EDT
Nautical Twilight 6:32 AM EDT 7:38 PM EDT
Astronomical Twilight 6:05 AM EDT 8:05 PM EDT
Moon 4:27 AM EDT (10/20) 4:55 PM EDT (10/20)
Length of Visible Light 12h 12m
Length of Day
11h 26m
Tomorrow will be 1m 26s shorter.
Waning Crescent, 8% of the Moon is Illuminated
Today
Waning Crescent
Oct 23
New
Oct 30
First Quarter
Nov 6
Full
Nov 14
Last Quarter

Today's Extremes

State Highs State Lows

Community

WunderPhotos

Upload Photos

1,763,563 photos uploaded!

Nearby

Air Quality

  Air Quality AQ Index Pollutant
Yesterday Good
OZONE
Monday Good
PM2.5
Tuesday Good
OZONE

Snow Depth

Station Depth Elevation
No new snow has been reported.

Earthquake Activity

City Distance Mag. Time & Date
No recent earthquake activity has been reported nearby.
Minimum magnitude displayed is 2.5.

Coastal Water Temperatures

Place Temperature
Virginia Key, FL 82.0 °F

Nearby Weather Stations